createdAt,value
2019-03-29T00:01:19.219Z,2.17
2019-03-29T00:03:49.635Z,2.00
2019-03-29T00:06:19.942Z,2.67
2019-03-29T00:08:51.028Z,2.67
2019-03-29T00:11:21.477Z,2.33
2019-03-29T00:13:53.514Z,2.33
2019-03-29T00:16:23.772Z,2.53
2019-03-29T00:18:55.371Z,2.50
2019-03-29T00:21:25.958Z,1.80
2019-03-29T00:24:06.138Z,2.00
2019-03-29T00:26:28.325Z,2.43
2019-03-29T00:28:58.933Z,2.57
2019-03-29T00:31:29.133Z,2.47
2019-03-29T00:33:59.386Z,2.70
2019-03-29T00:36:30.238Z,2.70
2019-03-29T00:39:06.700Z,2.20
2019-03-29T00:41:36.774Z,2.60
2019-03-29T00:44:07.548Z,2.43
2019-03-29T00:46:40.031Z,2.60
2019-03-29T00:49:10.346Z,3.00
2019-03-29T00:51:41.135Z,3.07
2019-03-29T00:54:11.296Z,2.90
2019-03-29T00:56:41.731Z,3.00
2019-03-29T00:59:14.302Z,3.40
2019-03-29T01:01:45.199Z,2.90
2019-03-29T01:04:16.905Z,3.00
2019-03-29T01:06:47.264Z,2.80
2019-03-29T01:09:17.401Z,3.37
2019-03-29T01:11:50.277Z,3.63
2019-03-29T01:14:24.217Z,2.37
2019-03-29T01:16:54.520Z,3.73
2019-03-29T01:19:24.855Z,3.37
2019-03-29T01:21:55.744Z,3.60
2019-03-29T01:24:26.795Z,3.53
2019-03-29T01:26:57.085Z,3.87
2019-03-29T01:29:36.818Z,3.30
2019-03-29T01:32:07.353Z,3.80
2019-03-29T01:34:37.986Z,3.43
2019-03-29T01:37:08.324Z,4.07
2019-03-29T01:39:38.784Z,3.90
2019-03-29T01:42:09.245Z,4.23
2019-03-29T01:44:42.424Z,4.13
2019-03-29T01:47:13.422Z,4.73
2019-03-29T01:49:43.978Z,4.50
2019-03-29T01:52:14.170Z,5.23
2019-03-29T01:54:44.955Z,4.87
2019-03-29T01:57:15.274Z,5.10
2019-03-29T01:59:45.449Z,5.03
2019-03-29T02:02:15.729Z,4.67
2019-03-29T02:04:46.112Z,4.80
2019-03-29T02:07:17.507Z,4.90
2019-03-29T02:09:47.992Z,5.10
2019-03-29T02:12:18.318Z,5.63
2019-03-29T02:14:48.968Z,5.70
2019-03-29T02:17:19.764Z,5.70
2019-03-29T02:19:51.273Z,4.47
2019-03-29T02:22:21.548Z,4.73
2019-03-29T02:24:52.223Z,4.77
2019-03-29T02:27:23.029Z,5.53
2019-03-29T02:29:53.609Z,4.50
2019-03-29T02:32:24.933Z,8.47
2019-03-29T02:34:55.301Z,3.87
2019-03-29T02:37:25.460Z,4.50
2019-03-29T02:39:59.842Z,4.53
2019-03-29T02:42:29.947Z,5.63
2019-03-29T02:45:00.568Z,4.37
2019-03-29T02:47:30.910Z,4.47
2019-03-29T02:50:00.881Z,4.23
2019-03-29T02:52:30.959Z,4.87
2019-03-29T02:55:01.254Z,4.80
2019-03-29T02:57:31.277Z,4.50
2019-03-29T03:00:01.434Z,4.50
2019-03-29T03:02:32.221Z,5.03
2019-03-29T03:05:03.570Z,4.07
2019-03-29T03:07:33.669Z,5.27
2019-03-29T03:10:04.215Z,3.93
2019-03-29T03:12:34.631Z,4.37
2019-03-29T03:15:05.114Z,4.57
2019-03-29T03:17:35.203Z,4.10
2019-03-29T03:20:06.073Z,4.30
2019-03-29T03:22:36.168Z,4.80
2019-03-29T03:25:07.114Z,4.13
2019-03-29T03:27:37.472Z,4.27
2019-03-29T03:30:09.228Z,4.00
2019-03-29T03:32:39.762Z,4.30
2019-03-29T03:35:11.565Z,4.10
2019-03-29T03:37:41.882Z,4.53
2019-03-29T03:40:12.216Z,3.60
2019-03-29T03:42:42.577Z,4.07
2019-03-29T03:45:13.105Z,4.47
2019-03-29T03:47:43.927Z,3.70
2019-03-29T03:50:45.309Z,3.80
2019-03-29T03:53:15.992Z,4.17
2019-03-29T03:55:46.416Z,3.77
2019-03-29T03:58:16.936Z,3.97
2019-03-29T04:00:58.137Z,3.40
2019-03-29T04:03:31.478Z,3.83
2019-03-29T04:06:01.887Z,3.80
2019-03-29T04:08:32.133Z,3.67
2019-03-29T04:11:02.375Z,4.60
2019-03-29T04:13:34.150Z,4.43
2019-03-29T04:16:04.432Z,4.13
2019-03-29T04:18:34.704Z,4.60
2019-03-29T04:21:04.996Z,4.80
2019-03-29T04:23:36.225Z,4.30
2019-03-29T04:26:06.499Z,4.53
2019-03-29T04:28:36.801Z,3.80
2019-03-29T04:31:07.339Z,4.53
2019-03-29T04:33:37.891Z,4.50
2019-03-29T04:36:08.151Z,4.33
2019-03-29T04:38:38.538Z,4.23
2019-03-29T04:41:08.785Z,4.80
2019-03-29T04:43:39.151Z,4.57
2019-03-29T04:46:09.461Z,4.40
2019-03-29T04:48:40.130Z,3.97
2019-03-29T04:51:12.024Z,4.00
2019-03-29T04:53:43.404Z,4.50
2019-03-29T04:56:13.631Z,4.67
2019-03-29T04:58:43.889Z,5.03
2019-03-29T05:01:17.211Z,4.97
2019-03-29T05:03:46.000Z,4.93
2019-03-29T05:06:16.422Z,4.67
2019-03-29T05:08:46.661Z,4.90
2019-03-29T05:11:16.873Z,5.00
2019-03-29T05:13:47.148Z,5.30
2019-03-29T05:16:18.047Z,5.07
2019-03-29T05:18:49.118Z,5.23
2019-03-29T05:21:19.439Z,5.20
2019-03-29T05:23:53.139Z,5.23
2019-03-29T05:26:25.416Z,5.23
2019-03-29T05:28:55.199Z,5.67
2019-03-29T05:31:25.436Z,4.67
2019-03-29T05:33:55.990Z,4.90
2019-03-29T05:36:26.174Z,4.73
2019-03-29T05:38:57.298Z,5.40
2019-03-29T05:41:27.632Z,4.63
2019-03-29T05:43:57.946Z,4.80
2019-03-29T05:46:28.038Z,4.70
2019-03-29T05:48:58.310Z,4.33
2019-03-29T05:51:28.373Z,4.67
2019-03-29T05:53:58.535Z,5.17
2019-03-29T05:56:28.666Z,4.67
2019-03-29T05:58:58.824Z,4.73
2019-03-29T06:01:29.017Z,4.80
2019-03-29T06:03:59.154Z,5.00
2019-03-29T06:06:30.802Z,4.43
2019-03-29T06:09:01.598Z,4.70
2019-03-29T06:11:32.875Z,4.73
2019-03-29T06:14:03.258Z,4.43
2019-03-29T06:16:39.280Z,4.40
2019-03-29T06:19:06.103Z,5.33
2019-03-29T06:21:36.204Z,5.20
2019-03-29T06:24:06.798Z,4.27
2019-03-29T06:26:38.364Z,4.40
2019-03-29T06:29:22.083Z,4.80
2019-03-29T06:31:52.066Z,5.40
2019-03-29T06:34:22.212Z,4.80
2019-03-29T06:36:54.008Z,5.27
2019-03-29T06:39:29.050Z,5.60
2019-03-29T06:41:59.188Z,4.97
2019-03-29T06:44:30.196Z,4.97
2019-03-29T06:47:00.364Z,4.47
2019-03-29T06:49:30.562Z,4.00
2019-03-29T06:52:00.583Z,4.30
2019-03-29T06:54:31.105Z,4.97
2019-03-29T06:57:01.282Z,5.10
2019-03-29T06:59:31.647Z,6.70
2019-03-29T07:02:01.702Z,5.70
2019-03-29T07:04:31.789Z,5.90
2019-03-29T07:07:02.020Z,6.10
2019-03-29T07:09:32.519Z,5.60
2019-03-29T07:12:02.647Z,10.67
2019-03-29T07:14:32.929Z,7.20
2019-03-29T07:17:03.476Z,6.47
2019-03-29T07:19:35.101Z,7.83
2019-03-29T07:22:06.212Z,7.87
2019-03-29T07:24:36.475Z,7.40
2019-03-29T07:27:06.787Z,6.67
2019-03-29T07:29:38.037Z,6.40
2019-03-29T07:32:08.175Z,7.07
2019-03-29T07:34:38.480Z,9.50
2019-03-29T07:37:09.133Z,8.57
2019-03-29T07:39:45.285Z,8.03
2019-03-29T07:42:52.483Z,9.90
2019-03-29T07:45:26.002Z,8.20
2019-03-29T07:47:56.249Z,7.93
2019-03-29T07:50:26.702Z,10.00
2019-03-29T07:52:56.848Z,8.47
2019-03-29T07:55:29.064Z,9.70
2019-03-29T07:57:59.626Z,9.83
2019-03-29T08:00:35.761Z,8.17
2019-03-29T08:03:05.829Z,10.70
2019-03-29T08:05:35.931Z,9.13
2019-03-29T08:08:05.962Z,7.60
2019-03-29T08:10:36.277Z,9.40
2019-03-29T08:13:07.499Z,10.10
2019-03-29T08:15:37.589Z,9.50
2019-03-29T08:18:08.241Z,9.83
2019-03-29T08:20:43.916Z,9.30
2019-03-29T08:23:10.968Z,7.77
2019-03-29T08:25:41.092Z,9.57
2019-03-29T08:28:11.206Z,9.40
2019-03-29T08:30:41.332Z,7.17
2019-03-29T08:33:11.435Z,7.30
2019-03-29T08:35:41.681Z,6.97
2019-03-29T08:38:11.741Z,8.47
2019-03-29T08:40:45.118Z,8.90
2019-03-29T08:43:13.486Z,7.23
2019-03-29T08:45:43.603Z,10.00
2019-03-29T08:48:13.614Z,8.87
2019-03-29T08:50:48.279Z,8.97
2019-03-29T08:53:18.492Z,7.97
2019-03-29T08:55:48.550Z,6.17
2019-03-29T08:58:18.641Z,8.90
2019-03-29T09:00:48.739Z,8.83
2019-03-29T09:03:18.974Z,10.90
2019-03-29T09:05:49.846Z,7.47
2019-03-29T09:08:19.872Z,6.77
2019-03-29T09:10:49.859Z,7.13
2019-03-29T09:13:19.959Z,7.17
2019-03-29T09:15:50.505Z,8.50
2019-03-29T09:18:20.721Z,7.87
2019-03-29T09:20:50.897Z,6.83
2019-03-29T09:23:21.008Z,3.47
2019-03-29T09:25:51.083Z,7.67
2019-03-29T09:28:21.420Z,6.97
2019-03-29T09:30:51.671Z,8.23
2019-03-29T09:33:21.895Z,7.07
2019-03-29T09:35:52.102Z,6.77
2019-03-29T09:38:22.367Z,5.20
2019-03-29T09:40:58.575Z,9.17
2019-03-29T09:43:27.357Z,6.63
2019-03-29T09:46:02.970Z,6.87
2019-03-29T09:48:34.416Z,9.03
2019-03-29T09:51:02.981Z,7.57
2019-03-29T09:53:33.101Z,7.53
2019-03-29T09:56:03.387Z,8.07
2019-03-29T09:58:33.435Z,7.27
2019-03-29T10:01:03.882Z,7.33
2019-03-29T10:03:34.980Z,5.77
2019-03-29T10:06:05.174Z,6.93
2019-03-29T10:08:35.427Z,5.90
2019-03-29T10:11:05.741Z,6.87
2019-03-29T10:13:35.814Z,6.13
2019-03-29T10:16:06.199Z,7.30
2019-03-29T10:18:36.376Z,6.17
2019-03-29T10:21:06.772Z,6.27
2019-03-29T10:23:38.574Z,4.93
2019-03-29T10:26:08.693Z,6.30
2019-03-29T10:28:41.694Z,7.20
2019-03-29T10:31:11.981Z,6.17
2019-03-29T10:33:42.066Z,6.47
2019-03-29T10:36:12.245Z,6.73
2019-03-29T10:38:42.413Z,5.77
2019-03-29T10:41:14.422Z,5.03
2019-03-29T10:43:44.770Z,5.50
2019-03-29T10:46:16.389Z,6.00
2019-03-29T10:48:46.492Z,5.30
2019-03-29T10:51:17.724Z,5.50
2019-03-29T10:53:48.067Z,4.83
2019-03-29T10:56:18.111Z,5.00
2019-03-29T10:58:48.180Z,6.70
2019-03-29T11:01:19.334Z,6.13
2019-03-29T11:03:49.336Z,5.20
2019-03-29T11:06:19.519Z,4.93
2019-03-29T11:08:53.000Z,4.80
2019-03-29T11:11:23.129Z,5.70
2019-03-29T11:13:56.394Z,5.03
2019-03-29T11:16:24.943Z,5.00
2019-03-29T11:18:57.449Z,3.60
2019-03-29T11:21:27.569Z,3.87
2019-03-29T11:23:58.772Z,5.90
2019-03-29T11:26:28.941Z,4.50
2019-03-29T11:28:59.961Z,4.47
2019-03-29T11:31:30.247Z,4.90
2019-03-29T11:34:00.550Z,5.73
2019-03-29T11:36:33.505Z,4.23
2019-03-29T11:39:03.919Z,5.33
2019-03-29T11:41:34.453Z,4.27
2019-03-29T11:44:04.616Z,4.27
2019-03-29T11:46:34.818Z,4.13
2019-03-29T11:49:06.112Z,3.27
2019-03-29T11:51:36.143Z,4.07
2019-03-29T11:54:08.554Z,4.20
2019-03-29T11:56:39.281Z,3.83
2019-03-29T11:59:09.887Z,4.13
2019-03-29T12:01:39.986Z,3.60
2019-03-29T12:04:10.050Z,3.87
2019-03-29T12:06:40.406Z,4.23
2019-03-29T12:09:11.422Z,4.30
2019-03-29T12:11:46.894Z,2.77
2019-03-29T12:14:18.267Z,4.57
2019-03-29T12:16:48.442Z,2.93
2019-03-29T12:19:18.618Z,4.93
2019-03-29T12:21:48.958Z,13.57
2019-03-29T12:24:19.152Z,3.87
2019-03-29T12:26:49.424Z,3.00
2019-03-29T12:29:19.987Z,5.97
2019-03-29T12:31:50.185Z,7.25
2019-03-29T12:34:20.339Z,5.27
2019-03-29T12:36:54.919Z,3.98
2019-03-29T12:39:26.919Z,4.12
2019-03-29T12:41:56.988Z,3.90
2019-03-29T12:44:27.160Z,4.65
2019-03-29T12:46:57.311Z,13.08
2019-03-29T12:49:27.782Z,12.03
2019-03-29T12:51:58.078Z,18.00
2019-03-29T12:54:30.229Z,13.40
2019-03-29T12:57:00.564Z,15.58
2019-03-29T12:59:32.952Z,17.52
2019-03-29T13:02:02.915Z,20.23
2019-03-29T13:04:41.103Z,10.05
2019-03-29T13:07:13.059Z,3.92
2019-03-29T13:09:43.181Z,4.03
2019-03-29T13:12:13.559Z,5.83
2019-03-29T13:14:43.534Z,4.03
2019-03-29T13:17:14.108Z,3.60
2019-03-29T13:19:44.113Z,5.97
2019-03-29T13:22:14.579Z,7.47
2019-03-29T13:24:44.717Z,4.55
2019-03-29T13:27:15.341Z,3.50
2019-03-29T13:29:45.410Z,3.17
2019-03-29T13:32:15.476Z,3.62
2019-03-29T13:34:47.032Z,3.20
2019-03-29T13:37:17.209Z,2.98
2019-03-29T13:39:47.487Z,3.70
2019-03-29T13:42:17.843Z,2.90
2019-03-29T13:44:56.755Z,3.52
2019-03-29T13:47:42.299Z,3.77
2019-03-29T13:50:12.779Z,4.22
2019-03-29T13:52:43.312Z,3.77
2019-03-29T13:55:13.444Z,4.72
2019-03-29T13:57:43.508Z,3.45
2019-03-29T14:00:13.829Z,4.87
2019-03-29T14:02:43.892Z,3.70
2019-03-29T14:05:14.233Z,4.22
2019-03-29T14:07:44.439Z,4.92
2019-03-29T14:10:15.232Z,5.78
2019-03-29T14:12:45.403Z,4.60
2019-03-29T14:15:16.995Z,5.40
2019-03-29T14:17:49.801Z,6.15
2019-03-29T14:20:33.376Z,4.62
2019-03-29T14:23:04.756Z,3.70
2019-03-29T14:25:35.018Z,5.47
2019-03-29T14:28:07.260Z,6.65
2019-03-29T14:30:37.261Z,5.22
2019-03-29T14:33:07.254Z,3.65
2019-03-29T14:35:37.586Z,4.40
2019-03-29T14:38:07.808Z,10.13
2019-03-29T14:40:38.172Z,13.95
2019-03-29T14:43:08.607Z,9.23
2019-03-29T14:45:38.702Z,6.87
2019-03-29T14:48:09.102Z,22.02
2019-03-29T14:50:39.175Z,6.75
2019-03-29T14:53:09.314Z,5.50
2019-03-29T14:55:39.683Z,5.85
2019-03-29T14:58:12.068Z,19.90
2019-03-29T15:00:43.824Z,13.78
2019-03-29T15:03:17.597Z,5.58
2019-03-29T15:05:47.635Z,9.55
2019-03-29T15:08:22.721Z,7.12
2019-03-29T15:10:53.431Z,5.28
2019-03-29T15:13:23.729Z,4.10
2019-03-29T15:15:53.887Z,4.78
2019-03-29T15:18:24.617Z,4.85
2019-03-29T15:20:55.382Z,4.00
2019-03-29T15:23:25.620Z,6.42
2019-03-29T15:25:55.754Z,5.17
2019-03-29T15:28:26.183Z,4.97
2019-03-29T15:30:56.251Z,4.97
2019-03-29T15:33:27.054Z,4.15
2019-03-29T15:35:57.300Z,19.90
2019-03-29T15:38:27.475Z,6.22
2019-03-29T15:40:57.727Z,6.85
2019-03-29T15:43:27.948Z,4.80
2019-03-29T15:45:57.980Z,5.03
2019-03-29T15:48:28.171Z,4.33
2019-03-29T15:50:58.382Z,4.50
2019-03-29T15:53:28.442Z,3.98
2019-03-29T15:55:58.516Z,4.95
2019-03-29T15:58:28.780Z,4.90
2019-03-29T16:00:58.906Z,4.15
2019-03-29T16:03:29.101Z,4.90
2019-03-29T16:05:59.158Z,3.98
2019-03-29T16:08:29.259Z,5.12
2019-03-29T16:10:59.621Z,6.60
2019-03-29T16:13:29.674Z,7.65
2019-03-29T16:15:59.805Z,7.80
2019-03-29T16:18:30.024Z,6.20
2019-03-29T16:21:00.333Z,11.35
2019-03-29T16:23:30.445Z,5.60
2019-03-29T16:26:00.523Z,5.87
2019-03-29T16:28:31.742Z,5.83
2019-03-29T16:31:01.801Z,5.28
2019-03-29T16:33:36.853Z,7.75
2019-03-29T16:36:13.301Z,5.65
2019-03-29T16:38:43.389Z,6.12
2019-03-29T16:41:13.602Z,5.25
2019-03-29T16:43:44.522Z,5.30
2019-03-29T16:46:17.387Z,5.85
2019-03-29T16:48:50.549Z,7.70
2019-03-29T16:51:34.913Z,5.97
2019-03-29T16:54:05.780Z,5.75
2019-03-29T16:56:36.547Z,4.75
2019-03-29T16:59:08.309Z,7.83
2019-03-29T17:01:38.597Z,6.60
2019-03-29T17:04:09.594Z,6.03
2019-03-29T17:06:41.424Z,6.67
2019-03-29T17:09:11.773Z,6.47
2019-03-29T17:11:41.798Z,7.55
2019-03-29T17:14:12.650Z,7.92
2019-03-29T17:16:44.575Z,7.12
2019-03-29T17:19:14.774Z,7.40
2019-03-29T17:21:44.907Z,6.92
2019-03-29T17:24:16.695Z,6.60
2019-03-29T17:26:51.123Z,6.62
2019-03-29T17:29:21.777Z,8.08
2019-03-29T17:31:54.814Z,6.60
2019-03-29T17:34:25.773Z,6.80
2019-03-29T17:36:59.358Z,6.53
2019-03-29T17:39:30.250Z,5.80
2019-03-29T17:42:02.131Z,5.67
2019-03-29T17:44:33.251Z,6.20
2019-03-29T17:47:03.422Z,5.07
2019-03-29T17:49:36.727Z,4.90
2019-03-29T17:52:06.983Z,5.17
2019-03-29T17:54:37.415Z,6.00
2019-03-29T17:57:07.877Z,5.17
2019-03-29T17:59:42.953Z,5.90
2019-03-29T18:02:13.164Z,5.80
2019-03-29T18:04:43.388Z,5.77
2019-03-29T18:07:39.734Z,6.57
2019-03-29T18:10:22.176Z,6.23
2019-03-29T18:13:05.620Z,6.13
2019-03-29T18:15:38.709Z,6.23
2019-03-29T18:18:09.359Z,6.40
2019-03-29T18:20:40.890Z,6.43
2019-03-29T18:23:11.385Z,6.40
2019-03-29T18:25:41.550Z,6.93
2019-03-29T18:28:13.050Z,6.70
2019-03-29T18:30:48.229Z,7.27
2019-03-29T18:33:18.442Z,6.80
2019-03-29T18:35:48.860Z,7.23
2019-03-29T18:38:19.304Z,7.07
2019-03-29T18:40:50.189Z,7.57
2019-03-29T18:43:20.378Z,8.33
2019-03-29T18:45:51.179Z,6.73
2019-03-29T18:48:21.786Z,8.37
2019-03-29T18:50:52.143Z,7.37
2019-03-29T18:53:33.057Z,7.97
2019-03-29T18:56:05.833Z,8.50
2019-03-29T18:58:38.145Z,8.73
2019-03-29T19:01:11.250Z,9.03
2019-03-29T19:03:41.999Z,9.43
2019-03-29T19:06:12.281Z,8.13
2019-03-29T19:08:42.778Z,8.50
2019-03-29T19:11:18.069Z,8.33
2019-03-29T19:13:48.644Z,19.20
2019-03-29T19:16:19.139Z,9.03
2019-03-29T19:18:49.622Z,22.30
2019-03-29T19:21:20.731Z,13.77
2019-03-29T19:23:51.165Z,21.80
2019-03-29T19:26:21.909Z,21.90
2019-03-29T19:28:52.844Z,18.20
2019-03-29T19:31:23.178Z,24.40
2019-03-29T19:33:53.362Z,14.37
2019-03-29T19:36:23.670Z,21.00
2019-03-29T19:38:55.385Z,12.63
2019-03-29T19:41:27.365Z,26.43
2019-03-29T19:43:57.935Z,25.53
2019-03-29T19:46:28.821Z,24.83
2019-03-29T19:48:59.208Z,17.57
2019-03-29T19:51:29.592Z,14.43
2019-03-29T19:54:07.143Z,16.23
2019-03-29T19:56:32.817Z,28.37
2019-03-29T19:59:03.383Z,22.77
2019-03-29T20:01:33.882Z,20.37
2019-03-29T20:04:04.459Z,22.40
2019-03-29T20:06:34.642Z,15.20
2019-03-29T20:09:06.840Z,25.60
2019-03-29T20:11:39.411Z,20.10
2019-03-29T20:14:14.672Z,16.43
2019-03-29T20:16:45.037Z,16.43
2019-03-29T20:19:15.908Z,17.10
2019-03-29T20:21:48.772Z,16.60
2019-03-29T20:24:19.301Z,16.67
2019-03-29T20:26:51.581Z,15.53
2019-03-29T20:29:22.346Z,17.37
2019-03-29T20:31:53.943Z,15.60
2019-03-29T20:34:25.723Z,16.93
2019-03-29T20:36:56.613Z,17.37
2019-03-29T20:39:27.116Z,16.27
2019-03-29T20:41:57.540Z,17.13
2019-03-29T20:44:28.638Z,17.23
2019-03-29T20:47:00.114Z,15.70
2019-03-29T20:49:30.796Z,17.17
2019-03-29T20:52:01.341Z,16.27
2019-03-29T20:54:40.633Z,15.77
2019-03-29T20:57:12.735Z,15.23
2019-03-29T20:59:43.605Z,15.13
2019-03-29T21:02:14.140Z,15.60
2019-03-29T21:05:03.392Z,16.03
2019-03-29T21:07:44.222Z,15.67
2019-03-29T21:10:16.683Z,15.77
2019-03-29T21:12:47.463Z,15.50
2019-03-29T21:15:19.766Z,15.97
2019-03-29T21:17:56.650Z,15.43
2019-03-29T21:20:22.405Z,16.07
2019-03-29T21:22:53.514Z,15.53
2019-03-29T21:25:25.024Z,16.47
2019-03-29T21:27:55.501Z,14.97
2019-03-29T21:30:25.882Z,16.43
2019-03-29T21:32:56.471Z,16.20
2019-03-29T21:35:26.962Z,14.93
2019-03-29T21:37:58.457Z,15.63
2019-03-29T21:40:29.157Z,14.63
2019-03-29T21:43:01.753Z,16.67
2019-03-29T21:45:32.010Z,15.67
2019-03-29T21:48:25.516Z,16.67
2019-03-29T21:50:36.166Z,16.77
2019-03-29T21:53:06.644Z,15.97
2019-03-29T21:55:37.278Z,14.97
2019-03-29T21:58:07.642Z,17.17
2019-03-29T22:00:38.302Z,16.10
2019-03-29T22:03:10.038Z,15.67
2019-03-29T22:05:40.767Z,15.00
2019-03-29T22:08:11.902Z,16.70
2019-03-29T22:10:43.571Z,14.87
2019-03-29T22:13:14.229Z,15.70
2019-03-29T22:15:44.075Z,14.40
2019-03-29T22:18:14.494Z,14.07
2019-03-29T22:20:45.257Z,15.83
2019-03-29T22:23:15.612Z,15.23
2019-03-29T22:25:46.085Z,15.13
2019-03-29T22:28:16.288Z,14.90
2019-03-29T22:30:46.507Z,15.63
2019-03-29T22:33:16.704Z,15.37
2019-03-29T22:35:47.177Z,14.73
2019-03-29T22:38:17.626Z,13.73
2019-03-29T22:40:48.210Z,14.00
2019-03-29T22:43:22.598Z,14.53
2019-03-29T22:45:53.033Z,14.50
2019-03-29T22:48:23.163Z,14.53
2019-03-29T22:50:54.499Z,14.77
2019-03-29T22:53:24.614Z,13.40
2019-03-29T22:55:54.783Z,14.93
2019-03-29T22:58:28.459Z,14.27
2019-03-29T23:00:59.274Z,13.93
2019-03-29T23:03:29.395Z,14.37
2019-03-29T23:05:59.501Z,14.17
2019-03-29T23:08:29.860Z,14.63
2019-03-29T23:10:59.948Z,14.30
2019-03-29T23:13:30.838Z,14.07
2019-03-29T23:16:01.694Z,14.30
2019-03-29T23:18:31.853Z,13.80
2019-03-29T23:21:01.933Z,14.00
2019-03-29T23:23:33.278Z,13.90
2019-03-29T23:26:03.315Z,15.07
2019-03-29T23:28:34.115Z,13.97
2019-03-29T23:31:05.704Z,15.73
2019-03-29T23:33:36.472Z,15.10
2019-03-29T23:36:06.969Z,13.27
2019-03-29T23:38:40.499Z,14.73
2019-03-29T23:41:16.580Z,14.47
2019-03-29T23:43:46.659Z,13.30
2019-03-29T23:46:16.998Z,13.67
2019-03-29T23:48:47.573Z,14.30
2019-03-29T23:51:17.987Z,13.33
2019-03-29T23:53:48.142Z,13.73
2019-03-29T23:56:18.421Z,13.30
2019-03-29T23:58:48.514Z,12.40
